Drummond Island, Michigan
Current Conditions -  °F | °C
As of 3:15 PM on Friday 21 Nov 2014 (Local Time) from KDRM Reporting Station
Light Snow Light Snow  
Wind Chill: 18°   Ceiling: 3400
Heat Index: 26°   Visibility: 10mi
Dew Point: 20°   Wind: 8mph
Humidity: 75%   Direction: 230°SW
Pressure: 30.24"   Gusts: NA
Location:  46°N, 83.7°W
Report Text: KDRM 212015Z AUTO 23007KT 10SM -SN SCT021 SCT028 OVC034 M03/M07 A3024 RMK AO2 T10311069
Loading
Personal Weather Stations






























Interactive Weather Map New forecast layout! Learn more

10-Day Weather Forecast

Advertisements
Track Severe Weather on mobile